createdAt,value
2022-09-09T00:00:22.537Z,18.39
2022-09-09T00:03:16.069Z,18.34
2022-09-09T00:05:47.058Z,18.13
2022-09-09T00:08:23.964Z,18.17
2022-09-09T00:11:00.219Z,18.15
2022-09-09T00:13:41.047Z,18.20
2022-09-09T00:16:20.440Z,18.19
2022-09-09T00:18:52.707Z,18.19
2022-09-09T00:21:22.157Z,18.21
2022-09-09T00:23:53.926Z,18.21
2022-09-09T00:26:41.617Z,18.17
2022-09-09T00:29:25.103Z,18.19
2022-09-09T00:31:58.817Z,18.20
2022-09-09T00:34:28.498Z,18.20
2022-09-09T00:36:57.377Z,18.17
2022-09-09T00:39:43.063Z,18.13
2022-09-09T00:42:25.778Z,18.16
2022-09-09T00:45:14.937Z,18.16
2022-09-09T00:47:48.477Z,18.09
2022-09-09T00:50:36.438Z,18.08
2022-09-09T00:53:22.118Z,18.02
2022-09-09T00:55:51.638Z,17.94
2022-09-09T00:58:18.596Z,17.88
2022-09-09T01:00:50.324Z,17.86
2022-09-09T01:03:52.648Z,17.79
2022-09-09T01:06:29.377Z,17.79
2022-09-09T01:09:17.926Z,17.75
2022-09-09T01:12:04.327Z,17.65
2022-09-09T01:14:35.674Z,17.59
2022-09-09T01:17:19.777Z,17.51
2022-09-09T01:20:15.219Z,17.47
2022-09-09T01:22:56.128Z,17.47
2022-09-09T01:25:30.537Z,17.47
2022-09-09T01:28:11.537Z,17.47
2022-09-09T01:30:41.701Z,17.47
2022-09-09T01:33:18.216Z,17.42
2022-09-09T01:36:07.587Z,17.46
2022-09-09T01:38:41.796Z,17.46
2022-09-09T01:41:08.959Z,17.47
2022-09-09T01:43:46.929Z,17.48
2022-09-09T01:46:15.116Z,17.46
2022-09-09T01:48:44.270Z,17.51
2022-09-09T01:51:11.847Z,17.49
2022-09-09T01:53:42.887Z,17.44
2022-09-09T01:56:29.697Z,17.42
2022-09-09T01:59:25.658Z,17.42
2022-09-09T02:02:03.999Z,17.41
2022-09-09T02:04:46.165Z,17.41
2022-09-09T02:07:30.617Z,17.42
2022-09-09T02:10:24.097Z,17.45
2022-09-09T02:13:13.912Z,17.48
2022-09-09T02:15:59.629Z,17.51
2022-09-09T02:18:31.867Z,17.52
2022-09-09T02:21:00.655Z,17.56
2022-09-09T02:23:29.731Z,17.59
2022-09-09T02:25:59.647Z,17.61
2022-09-09T02:28:31.126Z,17.57
2022-09-09T02:30:59.644Z,17.55
2022-09-09T02:33:42.746Z,17.51
2022-09-09T02:36:12.287Z,17.49
2022-09-09T02:38:47.034Z,17.48
2022-09-09T02:41:16.007Z,17.43
2022-09-09T02:43:43.607Z,17.41
2022-09-09T02:46:36.526Z,17.39
2022-09-09T02:49:34.572Z,17.33
2022-09-09T02:52:07.057Z,17.30
2022-09-09T02:54:40.156Z,17.31
2022-09-09T02:57:13.969Z,17.29
2022-09-09T02:59:42.709Z,17.29
2022-09-09T03:02:11.331Z,17.20
2022-09-09T03:04:40.417Z,17.18
2022-09-09T03:07:08.597Z,17.16
2022-09-09T03:09:35.737Z,17.13
2022-09-09T03:12:03.457Z,17.10
2022-09-09T03:14:33.499Z,17.05
2022-09-09T03:17:02.217Z,17.02
2022-09-09T03:19:33.397Z,17.03
2022-09-09T03:22:01.553Z,17.02
2022-09-09T03:24:30.278Z,17.00
2022-09-09T03:26:57.498Z,17.04
2022-09-09T03:29:24.678Z,17.00
2022-09-09T03:31:55.349Z,16.95
2022-09-09T03:34:22.958Z,16.90
2022-09-09T03:36:50.458Z,16.90
2022-09-09T03:39:18.179Z,16.86
2022-09-09T03:41:46.606Z,16.80
2022-09-09T03:44:13.659Z,16.66
2022-09-09T03:46:42.518Z,16.69
2022-09-09T03:49:11.506Z,16.71
2022-09-09T03:51:39.517Z,16.66
2022-09-09T03:54:09.558Z,16.70
2022-09-09T03:56:37.977Z,16.74
2022-09-09T03:59:05.359Z,16.71
2022-09-09T04:01:32.494Z,16.79
2022-09-09T04:03:59.859Z,16.84
2022-09-09T04:06:27.357Z,16.85
2022-09-09T04:08:54.499Z,16.78
2022-09-09T04:11:22.637Z,16.78
2022-09-09T04:13:52.757Z,16.73
2022-09-09T04:16:20.039Z,16.74
2022-09-09T04:18:48.212Z,16.78
2022-09-09T04:21:17.372Z,16.79
2022-09-09T04:23:44.733Z,16.81
2022-09-09T04:26:15.133Z,16.86
2022-09-09T04:28:45.101Z,16.89
2022-09-09T04:31:24.894Z,16.93
2022-09-09T04:33:55.052Z,16.97
2022-09-09T04:36:23.173Z,16.98
2022-09-09T04:38:53.893Z,17.00
2022-09-09T04:41:21.180Z,16.97
2022-09-09T04:43:51.373Z,17.01
2022-09-09T04:46:18.742Z,16.94
2022-09-09T04:48:48.575Z,16.83
2022-09-09T04:51:15.892Z,16.84
2022-09-09T04:53:44.980Z,16.90
2022-09-09T04:56:15.904Z,16.86
2022-09-09T04:58:51.203Z,16.90
2022-09-09T05:01:23.293Z,16.95
2022-09-09T05:03:53.980Z,16.98
2022-09-09T05:06:24.149Z,17.07
2022-09-09T05:08:56.024Z,17.11
2022-09-09T05:11:27.722Z,17.13
2022-09-09T05:13:59.865Z,17.18
2022-09-09T05:16:28.605Z,17.22
2022-09-09T05:18:56.532Z,17.25
2022-09-09T05:21:27.858Z,17.35
2022-09-09T05:23:55.694Z,17.38
2022-09-09T05:26:24.372Z,17.44
2022-09-09T05:28:53.536Z,17.49
2022-09-09T05:31:20.931Z,17.50
2022-09-09T05:33:51.703Z,17.55
2022-09-09T05:36:21.654Z,17.65
2022-09-09T05:38:55.027Z,17.72
2022-09-09T05:41:24.334Z,17.82
2022-09-09T05:43:55.135Z,17.92
2022-09-09T05:46:26.331Z,17.90
2022-09-09T05:48:55.453Z,18.08
2022-09-09T05:51:31.493Z,18.20
2022-09-09T05:54:02.574Z,18.42
2022-09-09T05:56:33.931Z,18.61
2022-09-09T05:59:02.216Z,18.79
2022-09-09T06:01:32.968Z,18.96
2022-09-09T06:04:02.294Z,19.13
2022-09-09T06:06:38.413Z,19.28
2022-09-09T06:09:11.773Z,19.38
2022-09-09T06:11:42.413Z,19.47
2022-09-09T06:14:10.780Z,19.53
2022-09-09T06:16:39.536Z,19.59
2022-09-09T06:19:14.093Z,19.68
2022-09-09T06:21:42.452Z,19.78
2022-09-09T06:24:11.855Z,19.86
2022-09-09T06:26:43.492Z,19.89
2022-09-09T06:29:14.093Z,19.95
2022-09-09T06:31:43.457Z,20.01
2022-09-09T06:34:15.780Z,20.07
2022-09-09T06:36:47.533Z,20.11
2022-09-09T06:39:16.734Z,20.16
2022-09-09T06:41:45.613Z,20.24
2022-09-09T06:44:41.653Z,20.28
2022-09-09T06:47:13.372Z,20.30
2022-09-09T06:49:45.477Z,20.34
2022-09-09T06:52:15.365Z,20.39
2022-09-09T06:54:43.053Z,20.43
2022-09-09T06:59:58.573Z,20.48
2022-09-09T07:02:26.122Z,20.62
2022-09-09T07:04:54.254Z,20.66
2022-09-09T07:07:21.452Z,20.64
2022-09-09T07:09:50.096Z,20.76
2022-09-09T07:12:17.854Z,20.84
2022-09-09T07:14:53.061Z,20.89
2022-09-09T07:17:20.252Z,20.98
2022-09-09T07:19:48.980Z,21.01
2022-09-09T07:22:17.533Z,21.18
2022-09-09T07:24:46.382Z,21.27
2022-09-09T07:27:15.416Z,21.32
2022-09-09T07:29:43.054Z,21.32
2022-09-09T07:32:11.492Z,21.41
2022-09-09T07:34:39.256Z,21.45
2022-09-09T07:37:07.055Z,21.47
2022-09-09T07:39:35.989Z,21.49
2022-09-09T07:42:03.252Z,21.55
2022-09-09T07:44:30.652Z,21.58
2022-09-09T07:47:05.300Z,21.62
2022-09-09T07:49:37.738Z,21.63
2022-09-09T07:54:58.372Z,21.59
2022-09-09T07:57:25.659Z,21.61
2022-09-09T07:59:54.180Z,21.58
2022-09-09T08:02:21.931Z,21.59
2022-09-09T08:04:49.132Z,21.57
2022-09-09T08:07:18.292Z,21.55
2022-09-09T08:09:52.171Z,21.52
2022-09-09T08:12:24.693Z,21.55
2022-09-09T08:14:55.500Z,21.51
2022-09-09T08:17:26.107Z,21.49
2022-09-09T08:19:55.413Z,21.47
2022-09-09T08:22:27.665Z,21.54
2022-09-09T08:24:55.891Z,21.48
2022-09-09T08:27:24.051Z,21.53
2022-09-09T08:29:52.852Z,21.54
2022-09-09T08:32:20.780Z,21.49
2022-09-09T08:34:48.783Z,21.51
2022-09-09T08:37:21.616Z,21.54
2022-09-09T08:39:53.958Z,21.38
2022-09-09T08:42:41.619Z,21.24
2022-09-09T08:45:20.580Z,21.19
2022-09-09T08:47:57.132Z,21.39
2022-09-09T08:50:29.654Z,21.50
2022-09-09T08:53:23.252Z,21.57
2022-09-09T08:55:56.692Z,21.63
2022-09-09T08:58:36.465Z,21.68
2022-09-09T09:01:10.506Z,21.55
2022-09-09T09:04:05.701Z,21.51
2022-09-09T09:06:42.612Z,21.29
2022-09-09T09:09:17.060Z,21.39
2022-09-09T09:11:49.813Z,21.45
2022-09-09T09:14:25.041Z,21.48
2022-09-09T09:17:05.454Z,21.54
2022-09-09T09:19:39.891Z,21.58
2022-09-09T09:22:19.652Z,21.64
2022-09-09T09:25:06.462Z,21.67
2022-09-09T09:28:09.292Z,21.75
2022-09-09T09:30:51.058Z,21.69
2022-09-09T09:33:30.577Z,21.73
2022-09-09T09:36:01.015Z,21.84
2022-09-09T09:41:19.652Z,21.92
2022-09-09T09:43:55.177Z,22.00
2022-09-09T09:46:26.939Z,22.10
2022-09-09T09:49:00.261Z,22.23
2022-09-09T09:51:31.215Z,22.36
2022-09-09T09:54:26.651Z,22.48
2022-09-09T09:56:58.035Z,22.62
2022-09-09T09:59:39.143Z,22.80
2022-09-09T10:02:26.094Z,22.94
2022-09-09T10:05:03.112Z,23.06
2022-09-09T10:07:30.452Z,23.21
2022-09-09T10:09:59.172Z,23.25
2022-09-09T10:13:01.734Z,23.44
2022-09-09T10:15:35.815Z,23.65
2022-09-09T10:18:12.015Z,23.74
2022-09-09T10:20:52.212Z,24.01
2022-09-09T10:23:28.294Z,24.31
2022-09-09T10:26:13.134Z,24.52
2022-09-09T10:29:01.892Z,24.71
2022-09-09T10:31:52.340Z,24.94
2022-09-09T10:34:51.175Z,24.95
2022-09-09T10:37:27.333Z,25.31
2022-09-09T10:40:10.540Z,25.43
2022-09-09T10:42:38.253Z,25.45
2022-09-09T10:45:19.619Z,25.57
2022-09-09T10:48:07.211Z,25.79
2022-09-09T10:51:03.562Z,25.74
2022-09-09T10:53:50.494Z,26.02
2022-09-09T10:56:19.935Z,26.08
2022-09-09T10:58:53.063Z,26.38
2022-09-09T11:13:50.972Z,25.76
2022-09-09T11:16:27.365Z,25.63
2022-09-09T11:19:12.653Z,25.36
2022-09-09T11:21:47.896Z,25.25
2022-09-09T11:24:38.613Z,25.41
2022-09-09T11:27:17.533Z,25.34
2022-09-09T11:30:13.973Z,25.43
2022-09-09T11:33:06.063Z,25.50
2022-09-09T11:35:36.836Z,25.45
2022-09-09T11:38:04.091Z,25.52
2022-09-09T11:40:34.092Z,25.55
2022-09-09T11:43:19.894Z,25.19
2022-09-09T11:45:58.742Z,25.14
2022-09-09T11:48:34.692Z,25.16
2022-09-09T11:51:11.086Z,25.12
2022-09-09T11:53:55.771Z,25.34
2022-09-09T11:56:29.012Z,25.20
2022-09-09T11:59:08.062Z,24.96
2022-09-09T12:01:37.171Z,25.15
2022-09-09T12:04:10.333Z,25.21
2022-09-09T12:06:50.693Z,24.95
2022-09-09T12:09:57.892Z,24.85
2022-09-09T12:12:43.177Z,24.91
2022-09-09T12:15:11.092Z,24.76
2022-09-09T12:17:44.460Z,24.83
2022-09-09T12:20:18.651Z,24.62
2022-09-09T12:23:12.173Z,24.80
2022-09-09T12:26:00.374Z,24.65
2022-09-09T12:28:33.652Z,24.90
2022-09-09T12:31:19.318Z,24.92
2022-09-09T12:33:48.777Z,24.97
2022-09-09T12:36:20.852Z,25.10
2022-09-09T12:38:48.892Z,25.19
2022-09-09T12:41:30.254Z,25.12
2022-09-09T12:44:11.498Z,25.06
2022-09-09T12:46:43.496Z,25.28
2022-09-09T12:49:29.212Z,25.27
2022-09-09T12:51:58.653Z,25.42
2022-09-09T12:54:26.015Z,25.41
2022-09-09T12:56:53.372Z,25.40
2022-09-09T12:59:26.572Z,25.37
2022-09-09T13:02:00.577Z,25.41
2022-09-09T13:04:28.097Z,25.29
2022-09-09T13:06:56.740Z,25.29
2022-09-09T13:09:24.057Z,25.27
2022-09-09T13:11:59.492Z,25.30
2022-09-09T13:14:36.051Z,25.26
2022-09-09T13:17:06.414Z,25.19
2022-09-09T13:19:47.672Z,25.02
2022-09-09T13:22:21.979Z,25.08
2022-09-09T13:24:49.295Z,24.96
2022-09-09T13:27:30.104Z,25.02
2022-09-09T13:29:58.104Z,24.99
2022-09-09T13:32:28.058Z,24.95
2022-09-09T13:35:00.652Z,24.90
2022-09-09T13:37:36.333Z,24.78
2022-09-09T13:40:07.404Z,24.72
2022-09-09T13:42:40.573Z,24.64
2022-09-09T13:45:24.532Z,24.61
2022-09-09T13:47:56.541Z,24.55
2022-09-09T13:50:25.256Z,24.58
2022-09-09T13:52:55.372Z,24.54
2022-09-09T13:55:24.452Z,24.54
2022-09-09T13:58:04.172Z,24.49
2022-09-09T14:00:33.533Z,24.42
2022-09-09T14:03:04.580Z,24.39
2022-09-09T14:05:34.104Z,24.32
2022-09-09T14:08:04.414Z,24.12
2022-09-09T14:10:31.613Z,24.14
2022-09-09T14:12:58.701Z,24.07
2022-09-09T14:15:26.092Z,24.03
2022-09-09T14:17:53.492Z,24.03
2022-09-09T14:20:20.812Z,23.96
2022-09-09T14:22:48.572Z,23.89
2022-09-09T14:25:16.066Z,23.80
2022-09-09T14:27:43.701Z,23.76
2022-09-09T14:30:11.335Z,23.67
2022-09-09T14:32:38.411Z,23.63
2022-09-09T14:35:05.782Z,23.64
2022-09-09T14:37:32.893Z,23.59
2022-09-09T14:40:00.180Z,23.56
2022-09-09T14:42:28.092Z,23.55
2022-09-09T14:44:55.292Z,23.48
2022-09-09T14:47:22.536Z,23.46
2022-09-09T14:49:51.053Z,23.44
2022-09-09T14:52:18.172Z,23.40
2022-09-09T14:54:45.334Z,23.19
2022-09-09T14:57:12.543Z,23.15
2022-09-09T14:59:39.578Z,23.14
2022-09-09T15:02:06.710Z,23.04
2022-09-09T15:04:33.973Z,22.92
2022-09-09T15:07:01.054Z,22.92
2022-09-09T15:09:28.212Z,22.84
2022-09-09T15:11:55.293Z,22.78
2022-09-09T15:14:25.394Z,22.77
2022-09-09T15:16:53.475Z,22.62
2022-09-09T15:19:21.132Z,22.53
2022-09-09T15:21:48.812Z,22.44
2022-09-09T15:24:18.011Z,22.33
2022-09-09T15:26:45.222Z,22.30
2022-09-09T15:29:12.463Z,22.07
2022-09-09T15:31:39.652Z,22.08
2022-09-09T15:34:08.173Z,22.04
2022-09-09T15:36:36.412Z,22.03
2022-09-09T15:39:05.573Z,22.11
2022-09-09T15:41:33.772Z,22.11
2022-09-09T15:44:04.372Z,22.13
2022-09-09T15:46:37.301Z,22.10
2022-09-09T15:49:07.377Z,22.10
2022-09-09T15:51:43.518Z,22.01
2022-09-09T15:54:33.413Z,21.95
2022-09-09T15:57:04.173Z,21.96
2022-09-09T15:59:32.572Z,21.73
2022-09-09T16:02:01.244Z,21.75
2022-09-09T16:04:30.361Z,21.61
2022-09-09T16:07:00.613Z,21.61
2022-09-09T16:09:29.412Z,21.62
2022-09-09T16:12:07.701Z,21.65
2022-09-09T16:14:37.054Z,21.67
2022-09-09T16:17:05.252Z,21.65
2022-09-09T16:19:33.092Z,21.65
2022-09-09T16:22:00.132Z,21.63
2022-09-09T16:24:27.716Z,21.62
2022-09-09T16:26:56.256Z,21.64
2022-09-09T16:29:24.372Z,21.58
2022-09-09T16:31:51.820Z,21.52
2022-09-09T16:34:20.054Z,21.53
2022-09-09T16:36:49.814Z,21.50
2022-09-09T16:39:19.700Z,21.48
2022-09-09T16:41:48.812Z,21.35
2022-09-09T16:44:19.534Z,21.34
2022-09-09T16:46:50.029Z,21.28
2022-09-09T16:49:17.860Z,21.28
2022-09-09T16:51:50.848Z,21.22
2022-09-09T16:54:19.612Z,21.21
2022-09-09T16:56:49.173Z,21.11
2022-09-09T16:59:21.542Z,21.03
2022-09-09T17:01:50.925Z,20.96
2022-09-09T17:04:25.387Z,20.92
2022-09-09T17:06:54.585Z,20.91
2022-09-09T17:09:23.764Z,20.90
2022-09-09T17:11:53.469Z,20.84
2022-09-09T17:14:23.284Z,20.82
2022-09-09T17:16:50.735Z,20.83
2022-09-09T17:19:18.011Z,20.75
2022-09-09T17:22:15.568Z,20.76
2022-09-09T17:24:36.216Z,20.71
2022-09-09T17:27:03.492Z,20.74
2022-09-09T17:29:30.613Z,20.70
2022-09-09T17:31:57.772Z,20.70
2022-09-09T17:34:26.403Z,20.61
2022-09-09T17:36:53.653Z,20.57
2022-09-09T17:39:21.151Z,20.48
2022-09-09T17:41:48.293Z,20.48
2022-09-09T17:44:16.053Z,20.52
2022-09-09T17:46:44.594Z,20.49
2022-09-09T17:49:14.537Z,20.49
2022-09-09T17:51:43.174Z,20.52
2022-09-09T17:54:13.454Z,20.49
2022-09-09T17:56:42.101Z,20.49
2022-09-09T17:59:11.457Z,20.46
2022-09-09T18:01:41.225Z,20.47
2022-09-09T18:04:10.093Z,20.46
2022-09-09T18:06:40.851Z,20.44
2022-09-09T18:09:11.092Z,20.38
2022-09-09T18:11:43.296Z,20.36
2022-09-09T18:14:13.092Z,20.34
2022-09-09T18:16:41.138Z,20.32
2022-09-09T18:19:14.084Z,20.31
2022-09-09T18:21:43.188Z,20.29
2022-09-09T18:24:12.055Z,20.29
2022-09-09T18:26:40.454Z,20.29
2022-09-09T18:29:11.414Z,20.32
2022-09-09T18:31:39.492Z,20.33
2022-09-09T18:34:10.214Z,20.31
2022-09-09T18:36:47.067Z,20.32
2022-09-09T18:39:16.614Z,20.35
2022-09-09T18:41:47.013Z,20.33
2022-09-09T18:44:17.296Z,20.36
2022-09-09T18:46:45.993Z,20.35
2022-09-09T18:49:15.628Z,20.36
2022-09-09T18:51:44.626Z,20.35
2022-09-09T18:54:15.461Z,20.35
2022-09-09T18:56:44.548Z,20.34
2022-09-09T18:59:15.068Z,20.35
2022-09-09T19:01:43.376Z,20.38
2022-09-09T19:04:10.734Z,20.36
2022-09-09T19:06:43.412Z,20.35
2022-09-09T19:09:12.812Z,20.24
2022-09-09T19:11:40.820Z,20.23
2022-09-09T19:14:08.739Z,20.24
2022-09-09T19:16:36.519Z,20.23
2022-09-09T19:19:12.892Z,20.23
2022-09-09T19:21:42.972Z,20.22
2022-09-09T19:24:18.499Z,20.22
2022-09-09T19:26:52.859Z,20.17
2022-09-09T19:29:24.220Z,20.14
2022-09-09T19:32:42.692Z,20.11
2022-09-09T19:34:41.052Z,20.12
2022-09-09T19:37:29.615Z,20.13
2022-09-09T19:40:00.509Z,20.11
2022-09-09T19:42:27.852Z,20.11
2022-09-09T19:44:56.652Z,20.10
2022-09-09T19:47:24.422Z,20.11
2022-09-09T19:49:51.853Z,20.11
2022-09-09T19:52:19.340Z,20.13
2022-09-09T19:54:47.124Z,20.11
2022-09-09T19:57:14.300Z,20.07
2022-09-09T19:59:41.371Z,20.06
2022-09-09T20:02:12.463Z,20.08
2022-09-09T20:04:39.732Z,20.07
2022-09-09T20:07:06.780Z,20.03
2022-09-09T20:09:33.820Z,20.03
2022-09-09T20:12:01.093Z,20.03
2022-09-09T20:14:28.135Z,20.04
2022-09-09T20:16:55.300Z,19.99
2022-09-09T20:19:22.572Z,19.93
2022-09-09T20:21:49.821Z,19.92
2022-09-09T20:24:19.973Z,19.88
2022-09-09T20:26:49.282Z,19.83
2022-09-09T20:29:19.779Z,19.82
2022-09-09T20:31:48.269Z,19.76
2022-09-09T20:34:22.424Z,19.75
2022-09-09T20:36:51.174Z,19.77
2022-09-09T20:39:23.054Z,19.76
2022-09-09T20:41:50.573Z,19.73
2022-09-09T20:44:20.748Z,19.69
2022-09-09T20:46:50.532Z,19.64
2022-09-09T20:49:20.734Z,19.65
2022-09-09T20:51:50.687Z,19.63
2022-09-09T20:54:26.731Z,19.59
2022-09-09T20:56:55.561Z,19.52
2022-09-09T20:59:25.173Z,19.56
2022-09-09T21:01:53.520Z,19.53
2022-09-09T21:04:21.974Z,19.52
2022-09-09T21:06:51.421Z,19.44
2022-09-09T21:09:19.612Z,19.46
2022-09-09T21:11:47.494Z,19.41
2022-09-09T21:14:14.975Z,19.41
2022-09-09T21:16:42.172Z,19.39
2022-09-09T21:19:09.779Z,19.37
2022-09-09T21:21:37.410Z,19.34
2022-09-09T21:24:04.508Z,19.31
2022-09-09T21:26:31.699Z,19.26
2022-09-09T21:28:58.929Z,19.28
2022-09-09T21:31:28.106Z,19.21
2022-09-09T21:33:58.848Z,19.18
2022-09-09T21:36:28.458Z,19.16
2022-09-09T21:38:56.162Z,19.12
2022-09-09T21:41:23.088Z,19.08
2022-09-09T21:43:54.348Z,19.01
2022-09-09T21:46:23.407Z,19.04
2022-09-09T21:48:51.079Z,19.03
2022-09-09T21:51:18.899Z,19.03
2022-09-09T21:53:46.291Z,19.03
2022-09-09T21:56:15.591Z,19.03
2022-09-09T21:58:42.839Z,19.02
2022-09-09T22:01:15.439Z,19.04
2022-09-09T22:03:42.931Z,19.03
2022-09-09T22:06:14.048Z,19.02
2022-09-09T22:08:41.197Z,19.00
2022-09-09T22:11:17.008Z,18.98
2022-09-09T22:13:47.249Z,18.95
2022-09-09T22:16:17.300Z,18.94
2022-09-09T22:18:45.109Z,18.89
2022-09-09T22:21:14.849Z,18.94
2022-09-09T22:23:42.249Z,18.87
2022-09-09T22:26:10.548Z,18.87
2022-09-09T22:28:38.893Z,18.85
2022-09-09T22:31:06.508Z,18.85
2022-09-09T22:33:33.690Z,18.85
2022-09-09T22:36:00.719Z,18.80
2022-09-09T22:38:27.680Z,18.80
2022-09-09T22:40:54.887Z,18.80
2022-09-09T22:43:23.070Z,18.80
2022-09-09T22:45:50.396Z,18.81
2022-09-09T22:48:18.191Z,18.82
2022-09-09T22:50:45.510Z,18.83
2022-09-09T22:53:17.370Z,18.82
2022-09-09T22:55:59.669Z,18.83
2022-09-09T22:58:29.307Z,18.81
2022-09-09T23:00:59.651Z,18.72
2022-09-09T23:03:31.018Z,18.72
2022-09-09T23:06:00.710Z,18.72
2022-09-09T23:08:33.758Z,18.73
2022-09-09T23:11:04.524Z,18.71
2022-09-09T23:13:32.856Z,18.71
2022-09-09T23:16:04.221Z,18.71
2022-09-09T23:18:31.304Z,18.67
2022-09-09T23:21:01.610Z,18.67
2022-09-09T23:23:28.575Z,18.66
2022-09-09T23:25:55.668Z,18.62
2022-09-09T23:28:22.728Z,18.61
2022-09-09T23:30:51.010Z,18.58
2022-09-09T23:33:18.108Z,18.55
2022-09-09T23:35:45.098Z,18.54
2022-09-09T23:38:12.028Z,18.56
2022-09-09T23:40:40.728Z,18.57
2022-09-09T23:43:08.970Z,18.54
2022-09-09T23:45:35.829Z,18.53
2022-09-09T23:48:03.467Z,18.56
2022-09-09T23:50:30.629Z,18.56
2022-09-09T23:52:57.888Z,18.55
2022-09-09T23:55:24.868Z,18.53
2022-09-09T23:57:52.041Z,18.52
